Time;durP1;ratioP1;P1;durP2;ratioP2;P2;SDS_P1;SDS_P2;PMS_P1;PMS_P2;Temp;Humidity;BMP_temperature;BMP_pressure;BME280_temperature;BME280_humidity;BME280_pressure;Samples;Min_cycle;Max_cycle;Signal;HPM_P1;HPM_P2
2023/09/23 00:01:49;;;;;;;1.88;0.50;;;;;;;13.86;100.00;99694.38;5253205;28;20063;-72
2023/09/23 00:04:20;;;;;;;0.70;0.50;;;;;;;13.71;100.00;99696.19;5254720;28;20024;-72
2023/09/23 00:06:50;;;;;;;1.85;0.40;;;;;;;13.74;100.00;99692.53;5253644;28;20031;-72
2023/09/23 00:09:21;;;;;;;0.82;0.30;;;;;;;13.90;100.00;99701.13;5248171;28;20020;-71
2023/09/23 00:11:51;;;;;;;0.90;0.30;;;;;;;13.97;100.00;99702.44;5253227;28;20024;-72
2023/09/23 00:14:22;;;;;;;1.02;0.40;;;;;;;14.10;100.00;99703.34;5248483;28;20514;-71
2023/09/23 00:16:52;;;;;;;0.90;0.38;;;;;;;14.13;100.00;99708.41;5232859;28;20068;-72
2023/09/23 00:19:22;;;;;;;1.10;0.30;;;;;;;14.11;100.00;99705.84;5253701;28;20028;-72
2023/09/23 00:21:54;;;;;;;1.27;0.22;;;;;;;14.16;100.00;99711.72;5241537;28;20121;-72
2023/09/23 00:24:24;;;;;;;1.50;0.40;;;;;;;14.16;100.00;99710.88;5252078;28;20484;-71
2023/09/23 00:26:59;;;;;;;1.52;0.50;;;;;;;14.16;100.00;99721.38;5255597;28;20067;-72
2023/09/23 00:29:30;;;;;;;1.73;0.50;;;;;;;14.07;100.00;99735.06;5257777;28;20290;-72
2023/09/23 00:32:00;;;;;;;0.70;0.40;;;;;;;14.04;100.00;99740.50;5259645;28;20032;-72
2023/09/23 00:34:30;;;;;;;1.17;0.43;;;;;;;14.09;100.00;99741.06;5255972;28;20020;-72
2023/09/23 00:37:01;;;;;;;0.75;0.28;;;;;;;14.05;100.00;99743.03;5254190;28;20603;-72
2023/09/23 00:39:35;;;;;;;0.47;0.30;;;;;;;14.07;100.00;99746.41;5256264;28;20035;-72
2023/09/23 00:42:05;;;;;;;1.65;0.30;;;;;;;14.09;100.00;99743.72;5258341;28;20020;-72
2023/09/23 00:44:39;;;;;;;2.72;0.70;;;;;;;14.19;100.00;99750.94;5251029;28;20027;-72
2023/09/23 00:47:13;;;;;;;0.90;0.25;;;;;;;14.10;100.00;99756.72;5246655;28;20050;-72
2023/09/23 00:49:44;;;;;;;3.05;0.55;;;;;;;14.03;100.00;99759.84;5247776;28;20032;-72
2023/09/23 00:52:16;;;;;;;1.13;0.25;;;;;;;14.04;100.00;99745.75;5245687;28;20048;-72
2023/09/23 00:54:49;;;;;;;0.32;0.20;;;;;;;14.11;100.00;99752.31;5248911;28;20523;-72
2023/09/23 00:57:21;;;;;;;3.33;0.52;;;;;;;14.13;100.00;99760.97;5247410;28;20067;-72
2023/09/23 00:59:52;;;;;;;0.80;0.30;;;;;;;14.11;100.00;99761.03;5250990;28;20032;-72
2023/09/23 01:02:23;;;;;;;0.70;0.30;;;;;;;14.03;100.00;99765.94;5249669;28;20059;-72
2023/09/23 01:04:55;;;;;;;0.52;0.30;;;;;;;14.02;100.00;99766.03;5246022;28;20643;-72
2023/09/23 01:07:27;;;;;;;1.20;0.25;;;;;;;14.01;100.00;99759.09;5247907;28;20021;-72
2023/09/23 01:09:57;;;;;;;1.98;0.43;;;;;;;14.02;100.00;99768.66;5250472;28;20023;-72
2023/09/23 01:12:27;;;;;;;1.30;0.45;;;;;;;14.01;100.00;99772.22;5248348;28;20427;-72
2023/09/23 01:14:58;;;;;;;1.02;0.28;;;;;;;13.97;100.00;99760.22;5249028;28;20020;-72
2023/09/23 01:17:28;;;;;;;1.23;0.30;;;;;;;13.84;100.00;99769.78;5248242;28;20055;-72
2023/09/23 01:20:00;;;;;;;2.20;0.70;;;;;;;13.82;100.00;99769.91;5248519;28;20073;-72
2023/09/23 01:22:30;;;;;;;1.55;0.30;;;;;;;13.88;100.00;99766.06;5245215;28;20020;-72
2023/09/23 01:25:01;;;;;;;1.25;0.35;;;;;;;13.80;100.00;99760.44;5252693;28;20020;-72
2023/09/23 01:27:34;;;;;;;1.42;0.45;;;;;;;13.83;100.00;99753.22;5249278;28;20029;-72
2023/09/23 01:30:05;;;;;;;0.63;0.30;;;;;;;13.73;100.00;99759.94;5249251;28;20547;-72
2023/09/23 01:32:41;;;;;;;0.70;0.30;;;;;;;13.73;100.00;99767.00;5250296;28;20024;-72
2023/09/23 01:35:15;;;;;;;0.93;0.40;;;;;;;13.76;100.00;99777.31;5243876;28;20509;-72
2023/09/23 01:37:46;;;;;;;1.95;0.32;;;;;;;13.81;100.00;99770.00;5249124;28;20024;-72
2023/09/23 01:40:17;;;;;;;1.58;0.47;;;;;;;13.78;100.00;99771.00;5243750;28;20028;-72
2023/09/23 01:42:51;;;;;;;2.13;0.75;;;;;;;13.76;100.00;99777.31;5250633;28;20085;-72
2023/09/23 01:45:22;;;;;;;0.93;0.35;;;;;;;13.68;100.00;99783.03;5246596;28;20039;-72
2023/09/23 01:47:56;;;;;;;1.08;0.28;;;;;;;13.68;100.00;99800.56;5246968;28;20489;-72
2023/09/23 01:50:27;;;;;;;0.88;0.40;;;;;;;13.71;100.00;99808.28;5248484;28;20020;-72
2023/09/23 01:53:00;;;;;;;2.50;0.40;;;;;;;13.72;100.00;99808.16;5246762;28;20369;-72
2023/09/23 01:55:30;;;;;;;0.80;0.30;;;;;;;13.82;100.00;99804.06;5248353;28;20508;-71
2023/09/23 01:58:01;;;;;;;1.52;0.38;;;;;;;13.92;100.00;99809.59;5249825;28;20043;-72
2023/09/23 02:00:32;;;;;;;1.02;0.30;;;;;;;13.73;100.00;99809.03;5252292;28;20031;-72
2023/09/23 02:03:02;;;;;;;2.00;0.52;;;;;;;13.79;100.00;99798.13;5243867;28;20089;-72
2023/09/23 02:05:33;;;;;;;2.35;0.50;;;;;;;13.72;100.00;99799.47;5246764;28;20036;-71
2023/09/23 02:08:03;;;;;;;1.67;0.40;;;;;;;13.60;100.00;99801.00;5248962;28;20064;-72
2023/09/23 02:10:33;;;;;;;1.55;0.50;;;;;;;13.74;100.00;99793.16;5249011;28;20111;-72
2023/09/23 02:13:04;;;;;;;0.93;0.30;;;;;;;13.68;100.00;99798.78;5248141;28;20482;-72
2023/09/23 02:15:36;;;;;;;4.68;0.40;;;;;;;13.62;100.00;99799.16;5247866;28;20029;-72
2023/09/23 02:18:06;;;;;;;0.95;0.40;;;;;;;13.62;100.00;99796.53;5245433;28;20020;-72
2023/09/23 02:20:38;;;;;;;0.32;0.30;;;;;;;13.61;100.00;99807.94;5248981;28;20069;-72
2023/09/23 02:23:08;;;;;;;1.40;0.55;;;;;;;13.62;100.00;99803.56;5245922;28;20109;-72
2023/09/23 02:25:39;;;;;;;1.38;0.38;;;;;;;13.66;100.00;99797.19;5248592;28;20044;-72
2023/09/23 02:28:09;;;;;;;3.55;0.43;;;;;;;13.65;100.00;99801.59;5244839;28;20531;-72
2023/09/23 02:30:41;;;;;;;2.25;0.40;;;;;;;13.64;100.00;99807.78;5249199;28;20047;-72
2023/09/23 02:33:12;;;;;;;2.17;0.45;;;;;;;13.81;100.00;99804.13;5245135;28;20016;-71
2023/09/23 02:35:42;;;;;;;2.15;0.40;;;;;;;13.82;100.00;99806.69;5250289;28;20484;-72
2023/09/23 02:38:13;;;;;;;1.10;0.35;;;;;;;13.72;100.00;99813.41;5246109;28;21079;-72
2023/09/23 02:40:43;;;;;;;4.13;0.47;;;;;;;13.72;100.00;99813.41;5249611;28;20038;-72
2023/09/23 02:43:13;;;;;;;1.85;0.52;;;;;;;13.74;100.00;99822.03;5247109;28;20028;-72
2023/09/23 02:45:44;;;;;;;0.85;0.32;;;;;;;13.79;100.00;99820.00;5249141;28;20121;-72
2023/09/23 02:48:14;;;;;;;1.27;0.50;;;;;;;13.78;100.00;99818.28;5243258;28;20109;-72
2023/09/23 02:50:45;;;;;;;3.17;0.52;;;;;;;13.85;100.00;99814.38;5250338;28;20051;-72
2023/09/23 02:53:15;;;;;;;1.48;0.55;;;;;;;13.85;100.00;99817.00;5248134;28;20024;-72
2023/09/23 02:55:51;;;;;;;1.52;0.20;;;;;;;13.88;100.00;99818.59;5249953;28;20294;-72
2023/09/23 02:58:22;;;;;;;1.92;0.50;;;;;;;13.91;100.00;99831.53;5245703;28;20030;-72
2023/09/23 03:00:57;;;;;;;4.38;0.38;;;;;;;13.97;100.00;99834.66;5248301;28;20424;-72
2023/09/23 03:03:27;;;;;;;1.88;0.60;;;;;;;13.93;100.00;99838.38;5246249;28;20029;-72
2023/09/23 03:06:02;;;;;;;3.13;0.73;;;;;;;13.85;100.00;99850.28;5246548;28;20047;-71
2023/09/23 03:08:36;;;;;;;1.85;0.50;;;;;;;13.85;100.00;99850.28;5247142;28;20508;-72
2023/09/23 03:11:09;;;;;;;2.05;0.40;;;;;;;13.92;100.00;99857.69;5245119;28;20032;-72
2023/09/23 03:13:40;;;;;;;1.60;0.50;;;;;;;13.87;100.00;99848.41;5247992;28;20016;-72
2023/09/23 03:16:13;;;;;;;0.85;0.40;;;;;;;13.81;100.00;99856.66;5244467;28;20080;-72
2023/09/23 03:19:10;;;;;;;3.67;0.50;;;;;;;13.72;100.00;99857.22;5248393;28;20039;-72
2023/09/23 03:21:45;;;;;;;2.30;0.60;;;;;;;13.74;100.00;99863.22;5248803;28;20073;-72
2023/09/23 03:24:16;;;;;;;2.03;0.47;;;;;;;13.58;100.00;99859.81;5244188;28;20058;-72
2023/09/23 03:26:46;;;;;;;1.38;0.50;;;;;;;13.62;100.00;99863.94;5247061;28;20024;-72
2023/09/23 03:29:18;;;;;;;2.80;0.60;;;;;;;13.63;100.00;99863.00;5244653;28;20094;-71
2023/09/23 03:31:49;;;;;;;2.30;0.47;;;;;;;13.51;100.00;99876.84;5248360;28;20118;-72
2023/09/23 03:34:21;;;;;;;1.33;0.50;;;;;;;13.50;100.00;99885.66;5246351;28;20028;-72
2023/09/23 03:36:53;;;;;;;1.23;0.55;;;;;;;13.50;100.00;99885.66;5248343;28;20028;-72
2023/09/23 03:39:25;;;;;;;1.52;0.60;;;;;;;13.48;100.00;99895.41;5245730;28;20021;-72
2023/09/23 03:41:56;;;;;;;1.73;0.50;;;;;;;13.41;100.00;99907.22;5248597;28;20029;-72
2023/09/23 03:44:26;;;;;;;1.00;0.40;;;;;;;13.44;100.00;99912.28;5245683;28;20432;-72
2023/09/23 03:46:57;;;;;;;1.38;0.60;;;;;;;13.43;100.00;99914.03;5246799;28;20032;-72
2023/09/23 03:49:28;;;;;;;2.95;0.60;;;;;;;13.43;100.00;99921.09;5246841;28;20520;-71
2023/09/23 03:51:58;;;;;;;1.42;0.50;;;;;;;13.39;100.00;99923.03;5247152;28;20028;-72
2023/09/23 03:54:29;;;;;;;2.38;0.80;;;;;;;13.37;100.00;99914.41;5247937;28;20419;-72
2023/09/23 03:56:59;;;;;;;2.88;0.60;;;;;;;13.46;100.00;99918.28;5250021;28;20028;-72
2023/09/23 03:59:30;;;;;;;2.15;0.50;;;;;;;13.50;100.00;99923.28;5251013;28;20147;-72
2023/09/23 04:02:00;;;;;;;2.35;0.60;;;;;;;13.51;100.00;99926.72;5251559;28;20024;-72
2023/09/23 04:04:31;;;;;;;3.80;0.50;;;;;;;13.46;100.00;99931.41;5250964;28;20032;-72
2023/09/23 04:07:01;;;;;;;2.33;0.47;;;;;;;13.55;100.00;99936.16;5251477;28;20404;-72
2023/09/23 04:09:32;;;;;;;1.48;0.43;;;;;;;13.52;100.00;99942.41;5251011;28;20131;-72
2023/09/23 04:12:03;;;;;;;1.75;0.75;;;;;;;13.50;100.00;99944.28;5248620;28;20273;-72
2023/09/23 04:14:34;;;;;;;1.85;0.70;;;;;;;13.53;100.00;99948.50;5252955;28;20082;-72
2023/09/23 04:17:05;;;;;;;1.77;0.80;;;;;;;13.53;100.00;99953.75;5249210;28;20051;-72
2023/09/23 04:19:35;;;;;;;1.88;0.70;;;;;;;13.45;100.00;99959.47;5250068;28;20030;-72
2023/09/23 04:22:06;;;;;;;2.63;0.82;;;;;;;13.59;100.00;99961.28;5250285;28;20016;-72
2023/09/23 04:24:36;;;;;;;1.40;0.60;;;;;;;13.60;100.00;99955.94;5250777;28;20500;-72
2023/09/23 04:27:06;;;;;;;2.08;0.70;;;;;;;13.66;100.00;99963.47;5248886;28;20023;-72
2023/09/23 04:29:36;;;;;;;3.63;0.70;;;;;;;13.73;100.00;99971.84;5250543;28;20381;-72
2023/09/23 04:32:07;;;;;;;1.70;0.70;;;;;;;13.68;100.00;99963.38;5248864;28;20028;-71
2023/09/23 04:34:37;;;;;;;2.40;0.80;;;;;;;13.74;100.00;99977.00;5247555;28;20712;-72
2023/09/23 04:37:07;;;;;;;1.48;0.70;;;;;;;13.76;100.00;99976.91;5248515;28;20070;-72
2023/09/23 04:39:38;;;;;;;2.38;0.80;;;;;;;13.83;100.00;99976.47;5248202;28;20031;-72
2023/09/23 04:42:11;;;;;;;1.48;0.55;;;;;;;13.82;100.00;99981.81;5248461;28;20420;-72
2023/09/23 04:44:41;;;;;;;1.40;0.68;;;;;;;13.86;100.00;99989.41;5249017;28;20024;-72
2023/09/23 04:47:12;;;;;;;1.90;0.50;;;;;;;13.87;100.00;99995.50;5243811;28;20025;-72
2023/09/23 04:49:43;;;;;;;0.30;0.30;;;;;;;13.84;100.00;100000.94;5250235;28;20541;-72
2023/09/23 04:52:16;;;;;;;1.20;0.50;;;;;;;13.93;100.00;100000.41;5247437;28;20064;-72
2023/09/23 04:54:47;;;;;;;1.08;0.40;;;;;;;13.85;100.00;100002.63;5252364;28;20024;-72
2023/09/23 04:57:17;;;;;;;2.10;0.57;;;;;;;13.81;100.00;99996.72;5247519;28;20477;-72
2023/09/23 04:59:47;;;;;;;1.55;0.70;;;;;;;13.84;100.00;100003.56;5246360;28;20027;-72
2023/09/23 05:02:18;;;;;;;2.83;0.80;;;;;;;13.84;100.00;100006.19;5248461;28;20051;-72
2023/09/23 05:04:53;;;;;;;1.25;0.60;;;;;;;13.83;100.00;100015.88;5251528;28;20032;-72
2023/09/23 05:07:26;;;;;;;1.40;0.75;;;;;;;14.06;100.00;100017.16;5246175;28;20757;-72
2023/09/23 05:09:57;;;;;;;0.98;0.60;;;;;;;13.94;100.00;100025.75;5249873;28;20028;-72
2023/09/23 05:12:29;;;;;;;2.03;0.50;;;;;;;14.04;100.00;100024.25;5246939;28;20043;-72
2023/09/23 05:15:00;;;;;;;1.65;0.73;;;;;;;13.96;100.00;100023.88;5251511;28;20550;-72
2023/09/23 05:17:31;;;;;;;2.47;0.60;;;;;;;13.88;100.00;100032.19;5250531;28;20024;-72
2023/09/23 05:20:09;;;;;;;1.30;0.60;;;;;;;13.97;100.00;100033.44;5250996;28;20035;-72
2023/09/23 05:22:40;;;;;;;0.93;0.60;;;;;;;13.97;100.00;100033.44;5253565;28;20083;-72
2023/09/23 05:25:11;;;;;;;1.60;0.60;;;;;;;14.00;100.00;100038.53;5241386;28;20056;-71
2023/09/23 05:27:43;;;;;;;2.03;0.57;;;;;;;13.93;100.00;100042.47;5251573;28;20029;-72
2023/09/23 05:30:14;;;;;;;1.90;0.98;;;;;;;13.74;100.00;100044.44;5251263;28;20032;-72
2023/09/23 05:32:46;;;;;;;1.30;0.60;;;;;;;13.75;100.00;100046.13;5250949;28;20110;-72
2023/09/23 05:35:16;;;;;;;2.28;0.80;;;;;;;13.64;100.00;100052.00;5256649;28;20031;-72
2023/09/23 05:37:47;;;;;;;3.35;0.70;;;;;;;13.72;100.00;100064.69;5248907;28;20397;-72
2023/09/23 05:40:27;;;;;;;1.42;0.70;;;;;;;13.79;100.00;100061.63;5246260;28;20031;-72
2023/09/23 05:42:57;;;;;;;2.45;1.30;;;;;;;13.65;100.00;100060.69;5247088;28;20036;-72
2023/09/23 05:45:27;;;;;;;3.03;1.10;;;;;;;13.63;100.00;100065.19;5246509;28;20031;-72
2023/09/23 05:47:58;;;;;;;1.50;0.77;;;;;;;13.65;100.00;100061.56;5250493;28;20059;-72
2023/09/23 05:50:29;;;;;;;1.10;0.75;;;;;;;13.68;100.00;100068.41;5249834;28;20066;-72
2023/09/23 05:52:59;;;;;;;1.17;1.00;;;;;;;13.55;100.00;100062.16;5245970;28;20064;-73
2023/09/23 05:55:32;;;;;;;2.53;1.00;;;;;;;13.68;100.00;100063.16;5245825;28;20026;-72
2023/09/23 05:58:03;;;;;;;2.05;1.00;;;;;;;13.65;100.00;100068.59;5248553;28;20023;-72
2023/09/23 06:00:34;;;;;;;1.55;1.02;;;;;;;13.76;100.00;100076.72;5247918;28;20039;-72
2023/09/23 06:03:04;;;;;;;2.60;1.00;;;;;;;13.75;100.00;100081.09;5248998;28;20111;-72
2023/09/23 06:05:35;;;;;;;1.65;1.30;;;;;;;13.65;100.00;100089.59;5249152;28;20099;-72
2023/09/23 06:08:05;;;;;;;2.28;1.20;;;;;;;13.59;100.00;100096.03;5249938;28;20059;-72
2023/09/23 06:10:36;;;;;;;3.40;1.40;;;;;;;13.64;100.00;100094.00;5247414;28;20031;-72
2023/09/23 06:13:09;;;;;;;2.10;1.25;;;;;;;13.62;100.00;100097.66;5245537;28;20027;-72
2023/09/23 06:15:39;;;;;;;2.10;1.27;;;;;;;13.54;100.00;100105.94;5245487;28;20032;-72
2023/09/23 06:18:10;;;;;;;2.63;1.40;;;;;;;13.55;100.00;100098.94;5243311;28;20032;-72
2023/09/23 06:20:40;;;;;;;2.00;1.17;;;;;;;13.68;100.00;100108.66;5246724;28;20486;-72
2023/09/23 06:23:10;;;;;;;2.28;1.38;;;;;;;13.79;100.00;100103.66;5248664;28;20047;-72
2023/09/23 06:25:41;;;;;;;1.60;1.10;;;;;;;13.97;100.00;100107.88;5247698;28;20035;-72
2023/09/23 06:28:12;;;;;;;2.92;1.50;;;;;;;13.94;100.00;100115.06;5248367;28;20106;-72
2023/09/23 06:30:42;;;;;;;2.28;1.40;;;;;;;14.05;100.00;100110.91;5246611;28;20039;-72
2023/09/23 06:33:13;;;;;;;3.40;1.58;;;;;;;14.09;100.00;100114.22;5249738;28;20029;-72
2023/09/23 06:35:43;;;;;;;3.80;1.40;;;;;;;14.05;100.00;100117.97;5246702;28;20504;-72
2023/09/23 06:38:14;;;;;;;2.95;1.48;;;;;;;14.14;100.00;100125.31;5244154;28;20106;-72
2023/09/23 06:40:44;;;;;;;2.90;1.65;;;;;;;14.16;100.00;100118.19;5242815;28;20472;-72
2023/09/23 06:43:14;;;;;;;2.33;1.60;;;;;;;14.17;100.00;100125.16;5251949;28;20531;-72
2023/09/23 06:45:52;;;;;;;3.08;1.90;;;;;;;14.14;100.00;100130.56;5246242;28;20191;-73
2023/09/23 06:48:24;;;;;;;3.13;1.80;;;;;;;14.25;100.00;100141.34;5236088;28;20025;-73
2023/09/23 06:51:02;;;;;;;3.00;1.70;;;;;;;14.47;100.00;100147.91;5250761;28;20147;-73
2023/09/23 06:53:32;;;;;;;2.50;1.80;;;;;;;14.43;100.00;100158.69;5245191;28;20025;-72
2023/09/23 06:56:03;;;;;;;2.67;1.95;;;;;;;14.41;100.00;100155.31;5250136;28;20073;-72
2023/09/23 06:58:33;;;;;;;3.72;1.80;;;;;;;14.67;100.00;100162.50;5245377;28;20081;-73
2023/09/23 07:01:04;;;;;;;3.28;2.20;;;;;;;14.74;98.76;100163.88;5246863;28;20461;-73
2023/09/23 07:03:34;;;;;;;4.18;1.95;;;;;;;14.59;99.72;100170.03;5247697;28;20177;-73
2023/09/23 07:06:04;;;;;;;3.08;2.00;;;;;;;14.63;99.92;100177.63;5243468;28;20043;-73
2023/09/23 07:08:34;;;;;;;5.38;2.03;;;;;;;14.80;99.74;100179.28;5250334;28;20020;-73
2023/09/23 07:11:14;;;;;;;3.65;2.20;;;;;;;14.82;97.28;100187.91;5253849;28;20077;-72
2023/09/23 07:13:44;;;;;;;3.55;2.13;;;;;;;15.44;95.89;100186.72;5252670;28;20027;-73
2023/09/23 07:16:15;;;;;;;2.88;1.98;;;;;;;17.04;88.24;100191.13;5253198;28;20038;-73
2023/09/23 07:18:45;;;;;;;2.65;1.80;;;;;;;18.35;79.41;100179.97;5249199;28;20097;-73
2023/09/23 07:21:15;;;;;;;3.65;1.80;;;;;;;19.48;73.83;100178.25;5248420;28;20042;-73
2023/09/23 07:23:46;;;;;;;2.47;1.45;;;;;;;20.32;72.42;100184.72;5248957;28;20028;-73
2023/09/23 07:26:20;;;;;;;2.88;1.52;;;;;;;20.67;69.24;100194.09;5248188;28;20023;-73
2023/09/23 07:28:51;;;;;;;2.10;1.33;;;;;;;20.42;69.25;100201.56;5253047;28;20028;-73
2023/09/23 07:31:21;;;;;;;3.33;1.42;;;;;;;21.62;68.53;100202.75;5249926;28;20019;-73
2023/09/23 07:33:51;;;;;;;2.63;1.40;;;;;;;22.46;65.58;100206.69;5255505;28;20028;-74
2023/09/23 07:36:22;;;;;;;1.90;1.20;;;;;;;22.35;63.65;100214.78;5251957;28;20016;-73
2023/09/23 07:38:52;;;;;;;1.37;1.00;;;;;;;22.66;62.38;100221.75;5253017;28;20262;-74
2023/09/23 07:41:22;;;;;;;1.73;0.93;;;;;;;22.15;66.35;100233.53;5244748;28;20356;-72
2023/09/23 07:43:52;;;;;;;1.97;1.00;;;;;;;21.99;64.70;100239.38;5247353;28;20032;-74
2023/09/23 07:46:23;;;;;;;2.67;1.00;;;;;;;23.02;61.56;100231.72;5245496;28;20306;-73
2023/09/23 07:48:53;;;;;;;2.10;1.08;;;;;;;20.99;65.67;100253.41;5249858;28;20272;-73
2023/09/23 07:51:24;;;;;;;2.28;1.15;;;;;;;22.03;64.74;100251.41;5250894;28;20036;-73
2023/09/23 07:53:54;;;;;;;3.30;1.10;;;;;;;21.42;65.84;100260.31;5247884;28;20532;-73
2023/09/23 07:56:24;;;;;;;2.65;1.02;;;;;;;20.39;68.47;100271.69;5242324;28;20056;-73
2023/09/23 07:58:55;;;;;;;1.97;1.00;;;;;;;21.25;65.96;100274.19;5243955;28;20024;-73
2023/09/23 08:01:25;;;;;;;2.00;1.00;;;;;;;20.87;68.39;100275.72;5240138;28;20291;-73
2023/09/23 08:03:55;;;;;;;1.57;1.00;;;;;;;21.52;66.04;100282.50;5244830;28;20028;-73
2023/09/23 08:06:26;;;;;;;3.93;1.17;;;;;;;22.16;63.52;100285.78;5244107;28;20270;-73
2023/09/23 08:08:56;;;;;;;1.92;1.00;;;;;;;22.48;62.67;100292.69;5249559;28;20262;-73
2023/09/23 08:11:26;;;;;;;0.67;0.60;;;;;;;23.38;61.28;100303.03;5251352;28;20099;-73
2023/09/23 08:13:57;;;;;;;1.33;0.82;;;;;;;22.93;61.60;100296.53;5250000;28;20643;-73
2023/09/23 08:16:27;;;;;;;3.33;1.17;;;;;;;23.01;63.30;100299.34;5245395;28;20454;-73
2023/09/23 08:18:57;;;;;;;1.17;0.77;;;;;;;23.14;62.67;100299.94;5243556;28;20279;-74
2023/09/23 08:21:28;;;;;;;4.20;1.00;;;;;;;23.90;61.92;100306.03;5248754;28;20392;-73
2023/09/23 08:23:58;;;;;;;2.60;1.10;;;;;;;23.65;60.66;100313.78;5245768;28;20344;-74
2023/09/23 08:26:29;;;;;;;2.05;1.00;;;;;;;24.03;59.96;100309.22;5246599;28;20035;-73
2023/09/23 08:28:59;;;;;;;3.33;0.90;;;;;;;24.62;59.83;100316.84;5245183;28;20106;-73
2023/09/23 08:31:30;;;;;;;3.08;0.70;;;;;;;24.31;60.18;100321.63;5244557;28;20512;-73
2023/09/23 08:34:00;;;;;;;1.33;0.87;;;;;;;25.14;58.53;100323.09;5240346;28;20025;-73
2023/09/23 08:36:31;;;;;;;3.60;1.23;;;;;;;24.91;58.52;100321.03;5241103;28;20616;-73
2023/09/23 08:39:05;;;;;;;1.27;0.80;;;;;;;26.27;57.67;100314.13;5249068;28;20020;-73
2023/09/23 08:41:36;;;;;;;1.80;0.88;;;;;;;24.70;59.27;100323.13;5245701;28;20469;-74
2023/09/23 08:44:08;;;;;;;1.55;0.73;;;;;;;24.16;59.83;100333.78;5246487;28;20107;-73
2023/09/23 08:46:40;;;;;;;1.67;0.73;;;;;;;22.66;63.79;100340.81;5242852;28;20032;-74
2023/09/23 08:49:11;;;;;;;2.17;0.75;;;;;;;22.13;65.04;100341.97;5246794;28;20102;-73
2023/09/23 08:51:43;;;;;;;2.58;0.90;;;;;;;21.18;67.68;100336.81;5242595;28;20036;-73
2023/09/23 08:54:13;;;;;;;2.05;0.70;;;;;;;20.85;68.26;100349.34;5245553;28;20508;-73
2023/09/23 08:56:44;;;;;;;3.08;0.95;;;;;;;21.25;68.81;100343.31;5244131;28;20048;-73
2023/09/23 08:59:14;;;;;;;1.42;0.75;;;;;;;22.30;65.59;100344.00;5253208;28;20027;-73
2023/09/23 09:01:44;;;;;;;2.45;0.95;;;;;;;22.89;63.04;100343.97;5245888;28;20063;-73
2023/09/23 09:04:15;;;;;;;2.35;0.70;;;;;;;21.57;66.75;100348.63;5247076;28;20202;-73
2023/09/23 09:06:50;;;;;;;3.35;0.95;;;;;;;21.79;66.45;100351.16;5242134;28;20388;-74
2023/09/23 09:09:20;;;;;;;2.25;0.90;;;;;;;22.07;66.02;100354.00;5251953;28;20551;-72
2023/09/23 09:11:58;;;;;;;2.28;0.95;;;;;;;21.24;68.69;100364.72;5248258;28;20107;-73
2023/09/23 09:14:29;;;;;;;1.67;0.68;;;;;;;21.22;68.73;100369.31;5247662;28;20064;-73
2023/09/23 09:16:59;;;;;;;2.83;0.80;;;;;;;21.03;69.34;100377.13;5252160;28;20485;-72
2023/09/23 09:19:29;;;;;;;1.58;0.65;;;;;;;20.78;70.65;100375.56;5250248;28;20028;-72
2023/09/23 09:22:00;;;;;;;4.60;0.95;;;;;;;20.69;69.81;100380.78;5249131;28;20409;-72
2023/09/23 09:24:30;;;;;;;3.80;1.07;;;;;;;20.33;71.60;100391.63;5246448;28;20032;-73
2023/09/23 09:27:00;;;;;;;2.70;1.20;;;;;;;19.27;72.96;100389.31;5245257;28;20346;-72
2023/09/23 09:29:31;;;;;;;2.10;0.93;;;;;;;19.25;74.64;100389.41;5249288;28;20032;-73
2023/09/23 09:32:03;;;;;;;3.17;1.00;;;;;;;19.02;75.76;100400.81;5246772;28;20114;-73
2023/09/23 09:34:42;;;;;;;1.15;0.70;;;;;;;19.21;74.67;100393.25;5243696;28;20935;-72
2023/09/23 09:37:14;;;;;;;2.03;0.80;;;;;;;18.91;76.52;100402.56;5254644;28;20032;-73
2023/09/23 09:39:53;;;;;;;2.30;0.80;;;;;;;19.37;75.53;100399.09;5246496;28;20201;-73
2023/09/23 09:42:27;;;;;;;2.58;0.70;;;;;;;19.71;74.65;100400.06;5245204;28;20312;-71
2023/09/23 09:44:58;;;;;;;2.70;1.08;;;;;;;19.92;74.00;100396.63;5246989;28;20122;-73
2023/09/23 09:47:28;;;;;;;4.15;0.85;;;;;;;19.81;73.08;100401.06;5239086;28;20028;-73
2023/09/23 09:50:03;;;;;;;3.83;1.17;;;;;;;20.01;73.56;100406.56;5241194;28;20123;-73
2023/09/23 09:52:35;;;;;;;5.50;1.02;;;;;;;20.11;73.94;100407.53;5237724;28;20108;-72
2023/09/23 09:55:07;;;;;;;2.83;1.02;;;;;;;19.97;72.99;100417.50;5227642;28;20087;-72
2023/09/23 09:57:37;;;;;;;4.53;1.00;;;;;;;19.51;74.35;100417.50;5239696;28;20025;-73
2023/09/23 10:03:06;;;;;;;2.78;0.85;;;;;;;18.91;74.86;100419.28;5222640;28;20074;-72
2023/09/23 10:05:47;;;;;;;4.22;1.10;;;;;;;18.91;74.69;100419.28;5226279;28;20584;-73
2023/09/23 10:08:24;;;;;;;2.30;0.90;;;;;;;18.97;76.54;100424.13;5237202;28;21073;-73
2023/09/23 10:11:02;;;;;;;3.08;0.93;;;;;;;19.38;73.93;100424.66;5244361;28;20478;-73
2023/09/23 10:13:33;;;;;;;1.95;0.80;;;;;;;19.47;72.69;100421.31;5243226;28;20021;-72
2023/09/23 10:16:13;;;;;;;3.15;1.10;;;;;;;19.19;73.48;100419.03;5251259;28;20036;-72
2023/09/23 10:18:44;;;;;;;4.43;1.00;;;;;;;18.75;74.95;100434.56;5249090;28;20077;-73
2023/09/23 10:21:23;;;;;;;1.70;0.98;;;;;;;18.73;75.53;100434.81;5238861;28;20693;-73
2023/09/23 10:24:00;;;;;;;4.65;1.00;;;;;;;18.83;75.88;100434.91;5245092;28;20469;-72
2023/09/23 10:26:30;;;;;;;3.22;0.80;;;;;;;18.79;76.42;100441.34;5242712;28;20462;-73
2023/09/23 10:29:03;;;;;;;4.85;1.23;;;;;;;18.88;75.97;100440.69;5250233;28;20025;-73
2023/09/23 10:31:34;;;;;;;3.22;1.05;;;;;;;18.73;76.57;100446.25;5246614;28;20050;-73
2023/09/23 10:34:06;;;;;;;5.43;1.30;;;;;;;18.95;76.76;100433.16;5248995;28;20023;-72
2023/09/23 10:36:36;;;;;;;5.78;1.00;;;;;;;18.90;75.48;100444.09;5235089;28;20051;-72
2023/09/23 10:39:16;;;;;;;2.63;1.00;;;;;;;18.94;75.43;100429.66;5252130;28;20032;-72
2023/09/23 10:41:46;;;;;;;2.70;1.20;;;;;;;18.88;76.25;100439.84;5245762;28;20512;-73
2023/09/23 10:44:23;;;;;;;3.63;1.20;;;;;;;18.90;75.46;100436.13;5245685;28;20031;-72
2023/09/23 10:46:53;;;;;;;2.65;1.10;;;;;;;18.37;75.31;100447.97;5246674;28;20052;-73
2023/09/23 10:49:24;;;;;;;4.90;1.05;;;;;;;18.43;75.66;100450.19;5252405;28;20384;-73
2023/09/23 10:51:54;;;;;;;1.70;1.08;;;;;;;18.26;76.88;100455.75;5249492;28;20036;-72
2023/09/23 10:54:24;;;;;;;2.63;1.10;;;;;;;18.36;76.97;100446.28;5249163;28;20542;-72
2023/09/23 10:56:55;;;;;;;3.10;1.20;;;;;;;18.51;77.54;100450.50;5244627;28;20559;-73
2023/09/23 10:59:26;;;;;;;3.50;1.05;;;;;;;18.44;77.99;100444.81;5240713;28;20028;-72
2023/09/23 11:01:57;;;;;;;4.35;1.27;;;;;;;18.83;77.95;100445.50;5225532;28;20083;-72
2023/09/23 11:04:27;;;;;;;2.90;1.30;;;;;;;18.96;77.31;100446.28;5230885;28;20549;-73
2023/09/23 11:06:58;;;;;;;2.30;1.20;;;;;;;19.07;76.82;100456.97;5236293;28;20061;-73
2023/09/23 11:09:30;;;;;;;2.40;1.10;;;;;;;19.37;77.01;100462.72;5243474;28;20025;-73
2023/09/23 11:12:15;;;;;;;4.25;1.10;;;;;;;19.16;75.39;100459.00;5243182;28;20036;-72
2023/09/23 11:14:46;;;;;;;2.78;1.00;;;;;;;19.39;74.85;100460.81;5231857;28;20059;-72
2023/09/23 11:17:20;;;;;;;3.60;0.98;;;;;;;19.79;75.75;100454.22;5219584;28;20040;-72
2023/09/23 11:19:55;;;;;;;2.58;0.88;;;;;;;19.91;72.49;100460.41;5220329;28;20035;-73
2023/09/23 11:22:26;;;;;;;3.53;1.10;;;;;;;19.58;73.77;100458.47;5232013;28;20036;-72
2023/09/23 11:24:58;;;;;;;2.42;1.10;;;;;;;19.52;72.59;100458.94;5238057;28;20105;-73
2023/09/23 11:27:30;;;;;;;2.17;0.80;;;;;;;19.72;74.01;100470.72;5237412;28;20102;-73
2023/09/23 11:30:01;;;;;;;1.80;0.80;;;;;;;20.08;74.15;100463.50;5236609;28;20024;-72
2023/09/23 11:32:33;;;;;;;2.58;0.98;;;;;;;20.12;71.71;100472.09;5239287;28;20457;-73
2023/09/23 11:35:04;;;;;;;1.67;0.90;;;;;;;19.87;73.35;100472.22;5236992;28;20291;-73
2023/09/23 11:37:34;;;;;;;2.72;1.10;;;;;;;19.81;71.76;100465.56;5234414;28;20081;-73
2023/09/23 11:40:08;;;;;;;1.88;0.93;;;;;;;19.76;72.11;100466.88;5248614;28;20029;-72
2023/09/23 11:42:38;;;;;;;4.25;1.10;;;;;;;19.79;71.87;100462.19;5232956;28;20028;-73
2023/09/23 11:45:09;;;;;;;1.90;0.80;;;;;;;19.94;73.34;100466.34;5233757;28;20086;-72
2023/09/23 11:47:40;;;;;;;4.50;1.50;;;;;;;19.88;70.28;100472.13;5233793;28;20411;-72